createdAt,value
2018-08-14T00:00:42.737Z,28.77
2018-08-14T00:03:16.415Z,28.27
2018-08-14T00:05:46.918Z,26.23
2018-08-14T00:08:16.685Z,27.90
2018-08-14T00:10:46.129Z,27.77
2018-08-14T00:13:16.922Z,27.65
2018-08-14T00:15:48.284Z,25.63
2018-08-14T00:18:17.934Z,25.50
2018-08-14T00:20:47.471Z,25.77
2018-08-14T00:23:16.739Z,25.95
2018-08-14T00:25:46.234Z,24.63
2018-08-14T00:28:15.622Z,25.87
2018-08-14T00:30:45.091Z,24.33
2018-08-14T00:33:14.555Z,24.40
2018-08-14T00:35:43.964Z,27.42
2018-08-14T00:38:13.301Z,26.23
2018-08-14T00:40:42.713Z,23.80
2018-08-14T00:43:12.100Z,24.47
2018-08-14T00:45:41.511Z,24.98
2018-08-14T00:48:11.006Z,25.60
2018-08-14T00:50:40.434Z,24.67
2018-08-14T00:53:09.781Z,25.27
2018-08-14T00:55:39.170Z,26.30
2018-08-14T00:58:08.690Z,27.80
2018-08-14T01:00:38.135Z,26.23
2018-08-14T01:03:11.247Z,25.90
2018-08-14T01:05:40.658Z,25.67
2018-08-14T01:08:10.343Z,25.17
2018-08-14T01:10:39.750Z,26.67
2018-08-14T01:13:09.087Z,29.63
2018-08-14T01:15:38.491Z,28.80
2018-08-14T01:18:07.861Z,27.00
2018-08-14T01:20:41.389Z,27.50
2018-08-14T01:23:10.842Z,26.97
2018-08-14T01:25:40.227Z,28.00
2018-08-14T01:28:09.609Z,28.43
2018-08-14T01:30:38.996Z,26.33
2018-08-14T01:33:08.360Z,25.47
2018-08-14T01:35:37.729Z,28.17
2018-08-14T01:38:07.139Z,25.87
2018-08-14T01:40:37.054Z,26.55
2018-08-14T01:43:07.166Z,25.65
2018-08-14T01:45:37.125Z,26.15
2018-08-14T01:48:07.367Z,26.50
2018-08-14T01:50:37.150Z,26.70
2018-08-14T01:53:07.230Z,26.97
2018-08-14T01:55:37.207Z,28.35
2018-08-14T01:58:07.156Z,27.70
2018-08-14T02:00:36.573Z,27.17
2018-08-14T02:03:05.930Z,27.27
2018-08-14T02:05:35.322Z,26.77
2018-08-14T02:08:04.647Z,27.23
2018-08-14T02:10:34.051Z,27.30
2018-08-14T02:13:03.428Z,26.90
2018-08-14T02:15:32.778Z,27.57
2018-08-14T02:18:02.165Z,28.17
2018-08-14T02:20:31.535Z,28.83
2018-08-14T02:23:00.942Z,28.30
2018-08-14T02:25:30.399Z,27.60
2018-08-14T02:27:59.815Z,28.07
2018-08-14T02:30:29.168Z,29.05
2018-08-14T02:32:58.535Z,29.07
2018-08-14T02:35:27.905Z,30.43
2018-08-14T02:37:57.313Z,30.30
2018-08-14T02:40:26.649Z,32.53
2018-08-14T02:42:56.078Z,32.15
2018-08-14T02:45:25.467Z,33.37
2018-08-14T02:47:54.848Z,34.23
2018-08-14T02:50:24.443Z,33.70
2018-08-14T02:52:53.810Z,32.73
2018-08-14T02:55:24.129Z,32.88
2018-08-14T02:57:53.585Z,32.10
2018-08-14T03:00:27.743Z,31.40
2018-08-14T03:02:57.755Z,30.48
2018-08-14T03:05:27.199Z,30.73
2018-08-14T03:07:56.584Z,29.50
2018-08-14T03:10:25.950Z,29.87
2018-08-14T03:12:55.349Z,28.73
2018-08-14T03:15:24.977Z,29.07
2018-08-14T03:17:56.161Z,27.82
2018-08-14T03:20:25.566Z,28.07
2018-08-14T03:22:54.932Z,29.13
2018-08-14T03:25:24.337Z,27.53
2018-08-14T03:27:53.798Z,26.02
2018-08-14T03:30:23.174Z,29.90
2018-08-14T03:32:52.510Z,28.62
2018-08-14T03:35:21.909Z,28.60
2018-08-14T03:37:51.237Z,27.77
2018-08-14T03:40:20.823Z,26.23
2018-08-14T03:42:50.626Z,26.07
2018-08-14T03:45:19.993Z,27.03
2018-08-14T03:47:49.456Z,27.20
2018-08-14T03:50:18.823Z,26.97
2018-08-14T03:52:48.210Z,26.33
2018-08-14T03:55:19.687Z,26.53
2018-08-14T03:57:49.033Z,24.97
2018-08-14T04:00:19.521Z,25.67
2018-08-14T04:02:48.877Z,25.60
2018-08-14T04:05:18.234Z,24.55
2018-08-14T04:07:47.635Z,24.23
2018-08-14T04:10:17.082Z,24.40
2018-08-14T04:12:46.473Z,26.00
2018-08-14T04:15:15.893Z,24.93
2018-08-14T04:17:45.265Z,24.72
2018-08-14T04:20:14.912Z,25.67
2018-08-14T04:22:44.301Z,25.17
2018-08-14T04:25:13.713Z,23.93
2018-08-14T04:27:43.106Z,25.48
2018-08-14T04:30:14.323Z,24.57
2018-08-14T04:32:44.916Z,25.50
2018-08-14T04:35:14.958Z,23.90
2018-08-14T04:37:45.178Z,23.92
2018-08-14T04:40:14.586Z,24.87
2018-08-14T04:42:44.445Z,25.47
2018-08-14T04:45:13.859Z,24.97
2018-08-14T04:47:43.255Z,24.67
2018-08-14T04:50:13.945Z,24.23
2018-08-14T04:52:43.658Z,25.65
2018-08-14T04:55:13.565Z,25.10
2018-08-14T05:00:18.511Z,23.70
2018-08-14T05:02:48.001Z,25.47
2018-08-14T05:05:17.378Z,24.87
2018-08-14T05:07:46.764Z,23.25
2018-08-14T05:10:16.814Z,25.80
2018-08-14T05:12:46.321Z,23.35
2018-08-14T05:15:15.678Z,24.90
2018-08-14T05:17:45.106Z,24.70
2018-08-14T05:20:14.764Z,26.68
2018-08-14T05:22:44.128Z,26.23
2018-08-14T05:25:13.559Z,27.15
2018-08-14T05:27:42.897Z,26.07
2018-08-14T05:30:16.324Z,27.00
2018-08-14T05:32:46.753Z,26.30
2018-08-14T05:35:16.210Z,25.40
2018-08-14T05:37:45.550Z,26.13
2018-08-14T05:40:14.996Z,24.20
2018-08-14T05:42:44.333Z,25.72
2018-08-14T05:45:15.586Z,23.60
2018-08-14T05:47:45.423Z,24.43
2018-08-14T05:50:18.545Z,27.47
2018-08-14T05:52:47.980Z,25.05
2018-08-14T05:55:17.302Z,25.47
2018-08-14T05:57:46.673Z,25.63
2018-08-14T06:00:18.407Z,25.40
2018-08-14T06:02:47.778Z,26.00
2018-08-14T06:05:17.113Z,26.60
2018-08-14T06:07:46.486Z,25.20
2018-08-14T06:10:15.868Z,24.93
2018-08-14T06:12:45.323Z,24.17
2018-08-14T06:15:15.080Z,23.17
2018-08-14T06:17:44.450Z,23.22
2018-08-14T06:20:14.803Z,23.90
2018-08-14T06:22:44.551Z,23.00
2018-08-14T06:25:13.901Z,21.65
2018-08-14T06:27:43.255Z,20.73
2018-08-14T06:30:19.296Z,22.13
2018-08-14T06:32:51.325Z,21.97
2018-08-14T06:35:20.729Z,22.65
2018-08-14T06:37:50.067Z,21.80
2018-08-14T06:40:19.478Z,21.67
2018-08-14T06:42:48.907Z,22.83
2018-08-14T06:45:19.001Z,20.83
2018-08-14T06:47:48.578Z,21.57
2018-08-14T06:50:20.461Z,21.13
2018-08-14T06:52:49.888Z,22.20
2018-08-14T06:55:19.193Z,20.80
2018-08-14T06:57:48.600Z,22.40
2018-08-14T07:00:19.640Z,21.10
2018-08-14T07:02:49.662Z,19.83
2018-08-14T07:05:19.182Z,20.90
2018-08-14T07:07:48.539Z,20.53
2018-08-14T07:10:17.945Z,21.77
2018-08-14T07:12:47.316Z,22.30
2018-08-14T07:15:20.827Z,20.10
2018-08-14T07:17:50.712Z,19.23
2018-08-14T07:20:20.070Z,18.87
2018-08-14T07:22:49.442Z,17.98
2018-08-14T07:25:20.203Z,19.10
2018-08-14T07:27:50.146Z,18.10
2018-08-14T07:30:21.900Z,17.03
2018-08-14T07:32:51.450Z,17.07
2018-08-14T07:35:20.804Z,16.10
2018-08-14T07:37:50.234Z,15.20
2018-08-14T07:40:19.598Z,14.73
2018-08-14T07:42:48.953Z,14.67
2018-08-14T07:45:18.684Z,14.17
2018-08-14T07:47:48.108Z,12.57
2018-08-14T07:50:17.481Z,13.33
2018-08-14T07:52:46.881Z,11.80
2018-08-14T07:55:16.270Z,12.77
2018-08-14T07:57:45.653Z,12.53
2018-08-14T08:00:17.984Z,12.30
2018-08-14T08:02:48.205Z,10.63
2018-08-14T08:05:17.941Z,9.57
2018-08-14T08:07:47.521Z,9.53
2018-08-14T08:10:17.407Z,9.10
2018-08-14T08:12:46.926Z,7.83
2018-08-14T08:15:17.542Z,8.27
2018-08-14T08:17:47.409Z,8.40
2018-08-14T08:20:29.442Z,7.00
2018-08-14T08:25:58.601Z,7.83
2018-08-14T08:28:27.953Z,7.90
2018-08-14T08:30:57.315Z,7.93
2018-08-14T08:33:26.766Z,7.97
2018-08-14T08:35:56.146Z,7.40
2018-08-14T08:44:02.810Z,7.63
2018-08-14T08:46:32.188Z,7.37
2018-08-14T08:49:01.562Z,8.50
2018-08-14T08:52:23.354Z,6.53
2018-08-14T08:58:08.323Z,6.07
2018-08-14T09:00:37.537Z,5.90
2018-08-14T09:03:07.190Z,6.07
2018-08-14T09:05:36.669Z,5.97
2018-08-14T09:08:09.235Z,6.10
2018-08-14T09:10:38.880Z,5.83
2018-08-14T09:13:09.802Z,5.60
2018-08-14T09:15:39.210Z,5.50
2018-08-14T09:18:08.665Z,6.22
2018-08-14T09:20:38.189Z,4.63
2018-08-14T09:23:07.548Z,5.12
2018-08-14T09:25:37.017Z,4.60
2018-08-14T09:28:06.427Z,4.30
2018-08-14T09:30:35.849Z,3.73
2018-08-14T09:33:05.237Z,5.40
2018-08-14T09:35:34.615Z,5.30
2018-08-14T09:41:04.077Z,4.83
2018-08-14T09:43:33.418Z,5.80
2018-08-14T09:46:02.833Z,4.63
2018-08-14T09:48:32.541Z,4.17
2018-08-14T09:51:01.910Z,4.57
2018-08-14T09:53:31.323Z,5.10
2018-08-14T09:56:00.674Z,6.42
2018-08-14T09:58:30.642Z,4.60
2018-08-14T10:01:08.815Z,5.10
2018-08-14T10:04:42.128Z,4.23
2018-08-14T10:07:16.841Z,5.08
2018-08-14T10:09:46.160Z,6.17
2018-08-14T10:12:15.680Z,4.97
2018-08-14T10:14:49.283Z,4.73
2018-08-14T10:17:18.608Z,4.27
2018-08-14T10:19:47.964Z,3.67
2018-08-14T10:22:17.246Z,4.43
2018-08-14T10:24:46.590Z,3.47
2018-08-14T10:27:15.907Z,3.17
2018-08-14T10:29:45.234Z,3.00
2018-08-14T10:32:14.557Z,2.80
2018-08-14T10:34:43.885Z,3.30
2018-08-14T10:37:13.234Z,2.63
2018-08-14T10:39:42.544Z,2.90
2018-08-14T10:42:11.944Z,2.53
2018-08-14T10:44:41.257Z,2.22
2018-08-14T10:47:10.607Z,2.00
2018-08-14T10:49:39.969Z,2.37
2018-08-14T10:52:09.268Z,2.60
2018-08-14T10:54:38.608Z,2.27
2018-08-14T10:57:07.944Z,2.07
2018-08-14T10:59:37.290Z,3.03
2018-08-14T11:02:06.610Z,2.17
2018-08-14T11:04:36.099Z,2.00
2018-08-14T11:07:05.439Z,3.42
2018-08-14T11:09:34.805Z,2.72
2018-08-14T11:12:09.340Z,3.43
2018-08-14T11:14:38.721Z,2.50
2018-08-14T11:17:09.013Z,3.30
2018-08-14T11:19:38.341Z,1.80
2018-08-14T11:22:07.694Z,3.00
2018-08-14T11:24:37.426Z,2.70
2018-08-14T11:27:07.131Z,2.63
2018-08-14T11:29:36.464Z,1.93
2018-08-14T11:32:05.813Z,2.06
2018-08-14T11:34:35.150Z,1.70
2018-08-14T11:37:04.521Z,1.80
2018-08-14T11:39:33.897Z,2.10
2018-08-14T11:42:03.243Z,2.90
2018-08-14T11:44:32.549Z,4.60
2018-08-14T11:47:01.863Z,2.42
2018-08-14T11:49:31.277Z,2.90
2018-08-14T11:52:00.968Z,2.17
2018-08-14T11:54:30.923Z,1.67
2018-08-14T11:57:00.976Z,2.50
2018-08-14T11:59:31.065Z,2.80
2018-08-14T12:02:01.243Z,4.03
2018-08-14T12:04:30.892Z,1.90
2018-08-14T12:07:01.107Z,2.10
2018-08-14T12:09:30.943Z,2.50
2018-08-14T12:12:00.918Z,7.12
2018-08-14T12:14:31.031Z,6.97
2018-08-14T12:17:01.016Z,5.90
2018-08-14T12:19:30.969Z,2.33
2018-08-14T12:22:00.982Z,2.33
2018-08-14T12:24:30.967Z,3.70
2018-08-14T12:27:01.076Z,1.80
2018-08-14T12:29:30.986Z,2.15
2018-08-14T12:32:01.043Z,2.60
2018-08-14T12:34:30.949Z,1.55
2018-08-14T12:37:01.025Z,2.60
2018-08-14T12:39:30.954Z,1.17
2018-08-14T12:42:01.026Z,1.15
2018-08-14T12:44:31.035Z,3.92
2018-08-14T12:47:01.043Z,1.55
2018-08-14T12:49:31.052Z,3.75
2018-08-14T12:52:01.040Z,1.32
2018-08-14T12:54:31.066Z,1.85
2018-08-14T12:57:01.093Z,1.30
2018-08-14T12:59:31.105Z,2.95
2018-08-14T13:02:01.110Z,1.90
2018-08-14T13:04:31.042Z,1.90
2018-08-14T13:07:00.991Z,2.33
2018-08-14T13:09:31.065Z,2.27
2018-08-14T13:12:01.140Z,3.87
2018-08-14T13:14:31.099Z,2.47
2018-08-14T13:17:01.530Z,2.42
2018-08-14T13:19:31.163Z,3.35
2018-08-14T13:22:02.761Z,3.40
2018-08-14T13:24:32.181Z,2.83
2018-08-14T13:27:01.523Z,3.60
2018-08-14T13:29:31.115Z,4.25
2018-08-14T13:32:01.221Z,2.87
2018-08-14T13:34:31.229Z,2.83
2018-08-14T13:37:01.337Z,2.50
2018-08-14T13:39:31.152Z,10.03
2018-08-14T13:42:01.130Z,8.10
2018-08-14T13:44:31.129Z,12.03
2018-08-14T13:47:01.231Z,10.72
2018-08-14T13:49:31.229Z,7.97
2018-08-14T13:52:01.198Z,2.60
2018-08-14T13:54:31.189Z,3.00
2018-08-14T13:57:01.198Z,2.55
2018-08-14T13:59:31.199Z,2.05
2018-08-14T14:02:01.207Z,2.30
2018-08-14T14:04:31.198Z,2.85
2018-08-14T14:07:01.264Z,1.85
2018-08-14T14:09:31.249Z,3.85
2018-08-14T14:12:01.246Z,1.80
2018-08-14T14:14:31.277Z,4.60
2018-08-14T14:17:01.174Z,2.58
2018-08-14T14:19:31.240Z,1.95
2018-08-14T14:22:01.252Z,1.20
2018-08-14T14:24:31.250Z,2.17
2018-08-14T14:27:01.289Z,1.75
2018-08-14T14:29:31.324Z,1.82
2018-08-14T14:32:01.270Z,1.98
2018-08-14T14:34:31.330Z,1.32
2018-08-14T14:37:01.264Z,3.47
2018-08-14T14:39:31.272Z,1.20
2018-08-14T14:42:01.269Z,1.72
2018-08-14T14:44:31.330Z,1.22
2018-08-14T14:47:01.341Z,1.12
2018-08-14T14:49:31.380Z,1.17
2018-08-14T14:52:01.377Z,1.35
2018-08-14T14:54:31.294Z,1.30
2018-08-14T14:57:01.355Z,1.87
2018-08-14T14:59:31.418Z,1.80
2018-08-14T15:02:01.353Z,2.37
2018-08-14T15:04:31.401Z,2.87
2018-08-14T15:07:01.453Z,1.90
2018-08-14T15:09:31.430Z,1.27
2018-08-14T15:12:01.393Z,2.50
2018-08-14T15:14:31.354Z,1.97
2018-08-14T15:17:01.315Z,1.98
2018-08-14T15:19:31.478Z,1.67
2018-08-14T15:22:01.492Z,3.37
2018-08-14T15:24:31.494Z,2.25
2018-08-14T15:27:01.393Z,1.85
2018-08-14T15:29:31.415Z,4.23
2018-08-14T15:32:02.932Z,3.05
2018-08-14T15:34:33.561Z,5.37
2018-08-14T15:37:06.453Z,3.63
2018-08-14T15:39:35.781Z,1.82
2018-08-14T15:42:05.674Z,1.53
2018-08-14T15:44:35.058Z,1.47
2018-08-14T15:47:04.440Z,2.45
2018-08-14T15:49:33.934Z,4.67
2018-08-14T15:52:03.143Z,3.40
2018-08-14T15:54:32.450Z,5.97
2018-08-14T15:57:01.750Z,3.83
2018-08-14T15:59:31.499Z,2.08
2018-08-14T16:02:01.465Z,3.22
2018-08-14T16:04:31.521Z,3.80
2018-08-14T16:07:01.593Z,4.35
2018-08-14T16:09:31.447Z,3.02
2018-08-14T16:12:01.647Z,4.33
2018-08-14T16:14:31.547Z,2.60
2018-08-14T16:17:01.638Z,3.95
2018-08-14T16:19:31.557Z,2.47
2018-08-14T16:24:29.565Z,3.17
2018-08-14T16:26:58.953Z,2.20
2018-08-14T16:29:28.254Z,2.43
2018-08-14T16:31:58.009Z,2.60
2018-08-14T16:34:27.285Z,3.10
2018-08-14T16:36:56.594Z,3.07
2018-08-14T16:39:25.913Z,4.00
2018-08-14T16:41:55.281Z,2.87
2018-08-14T16:44:24.606Z,4.13
2018-08-14T16:46:53.949Z,4.07
2018-08-14T16:49:23.273Z,2.03
2018-08-14T16:51:52.659Z,3.85
2018-08-14T16:54:21.978Z,3.27
2018-08-14T16:56:51.426Z,4.97
2018-08-14T16:59:20.792Z,6.43
2018-08-14T17:01:50.060Z,6.40
2018-08-14T17:04:19.380Z,3.75
2018-08-14T17:06:48.705Z,5.10
2018-08-14T17:09:18.041Z,3.87
2018-08-14T17:11:47.437Z,4.37
2018-08-14T17:14:16.811Z,5.07
2018-08-14T17:16:46.086Z,4.30
2018-08-14T17:19:15.364Z,6.30
2018-08-14T17:21:43.043Z,6.30
2018-08-14T17:24:12.351Z,2.98
2018-08-14T17:26:41.723Z,4.67
2018-08-14T17:29:11.119Z,3.83
2018-08-14T17:31:40.462Z,2.73
2018-08-14T17:34:09.746Z,4.77
2018-08-14T17:36:39.062Z,4.20
2018-08-14T17:39:14.592Z,4.67
2018-08-14T17:41:49.815Z,5.00
2018-08-14T17:44:19.341Z,3.80
2018-08-14T17:46:48.737Z,6.75
2018-08-14T17:49:18.034Z,4.77
2018-08-14T17:51:47.371Z,4.10
2018-08-14T17:54:16.693Z,6.03
2018-08-14T17:56:46.033Z,5.60
2018-08-14T17:59:15.340Z,6.67
2018-08-14T18:01:44.734Z,6.80
2018-08-14T18:04:20.699Z,5.65
2018-08-14T18:06:50.038Z,5.77
2018-08-14T18:09:19.433Z,5.07
2018-08-14T18:11:48.769Z,5.70
2018-08-14T18:14:18.103Z,5.07
2018-08-14T18:16:47.456Z,6.03
2018-08-14T18:19:16.795Z,5.53
2018-08-14T18:21:46.146Z,6.97
2018-08-14T18:24:15.473Z,8.50
2018-08-14T18:26:44.902Z,5.60
2018-08-14T18:29:14.205Z,7.53
2018-08-14T18:31:50.406Z,7.47
2018-08-14T18:34:26.730Z,4.70
2018-08-14T18:37:03.737Z,7.60
2018-08-14T18:39:40.193Z,8.80
2018-08-14T18:42:17.515Z,6.27
2018-08-14T18:44:53.595Z,6.27
2018-08-14T18:47:30.418Z,6.97
2018-08-14T18:50:00.033Z,6.40
2018-08-14T18:52:29.416Z,7.27
2018-08-14T18:54:58.758Z,7.77
2018-08-14T18:57:28.170Z,7.50
2018-08-14T18:59:57.526Z,7.43
2018-08-14T19:02:26.916Z,4.60
2018-08-14T19:04:56.380Z,6.97
2018-08-14T19:07:25.847Z,4.60
2018-08-14T19:09:55.319Z,5.37
2018-08-14T19:12:24.676Z,4.90
2018-08-14T19:14:54.016Z,8.83
2018-08-14T19:17:23.340Z,7.73
2018-08-14T19:19:52.685Z,5.80
2018-08-14T19:22:22.011Z,4.33
2018-08-14T19:25:00.874Z,5.53
2018-08-14T19:27:30.454Z,5.47
2018-08-14T19:29:59.740Z,9.90
2018-08-14T19:32:29.100Z,6.93
2018-08-14T19:34:58.460Z,6.47
2018-08-14T19:37:27.788Z,7.47
2018-08-14T19:39:57.147Z,6.10
2018-08-14T19:42:26.477Z,7.43
2018-08-14T19:44:55.797Z,6.90
2018-08-14T19:47:25.203Z,5.87
2018-08-14T19:49:54.654Z,7.07
2018-08-14T19:52:23.951Z,5.87
2018-08-14T19:54:53.321Z,4.43
2018-08-14T19:57:22.806Z,6.00
2018-08-14T19:59:52.273Z,6.37
2018-08-14T20:02:21.644Z,7.90
2018-08-14T20:04:51.120Z,6.30
2018-08-14T20:07:20.851Z,8.37
2018-08-14T20:09:50.258Z,4.00
2018-08-14T20:12:19.618Z,5.97
2018-08-14T20:14:48.950Z,5.73
2018-08-14T20:17:18.323Z,6.77
2018-08-14T20:19:47.661Z,6.03
2018-08-14T20:22:18.098Z,6.77
2018-08-14T20:24:47.499Z,5.53
2018-08-14T20:27:16.876Z,8.17
2018-08-14T20:29:46.218Z,5.47
2018-08-14T20:32:15.580Z,3.80
2018-08-14T20:34:44.936Z,7.83
2018-08-14T20:37:14.249Z,7.50
2018-08-14T20:39:43.605Z,4.90
2018-08-14T20:42:12.918Z,5.15
2018-08-14T20:44:42.213Z,5.05
2018-08-14T20:47:11.567Z,9.80
2018-08-14T20:49:40.903Z,3.83
2018-08-14T20:52:10.269Z,6.83
2018-08-14T20:54:39.586Z,6.23
2018-08-14T20:57:08.897Z,7.67
2018-08-14T20:59:38.298Z,4.73
2018-08-14T21:02:07.640Z,6.40
2018-08-14T21:04:36.982Z,4.80
2018-08-14T21:07:06.319Z,4.85
2018-08-14T21:09:35.640Z,5.90
2018-08-14T21:12:05.325Z,6.27
2018-08-14T21:14:34.668Z,7.87
2018-08-14T21:17:03.970Z,8.30
2018-08-14T21:19:33.332Z,8.03
2018-08-14T21:22:02.636Z,9.07
2018-08-14T21:24:32.373Z,6.67
2018-08-14T21:27:02.379Z,4.85
2018-08-14T21:29:32.359Z,6.42
2018-08-14T21:32:02.355Z,5.00
2018-08-14T21:34:32.497Z,3.92
2018-08-14T21:37:02.363Z,7.03
2018-08-14T21:39:32.411Z,7.95
2018-08-14T21:42:02.412Z,4.92
2018-08-14T21:44:32.439Z,4.62
2018-08-14T21:47:02.493Z,3.62
2018-08-14T21:49:32.484Z,5.67
2018-08-14T21:52:02.431Z,4.20
2018-08-14T21:54:32.473Z,3.70
2018-08-14T21:57:02.515Z,4.12
2018-08-14T21:59:32.439Z,5.83
2018-08-14T22:02:02.592Z,7.97
2018-08-14T22:04:32.598Z,7.05
2018-08-14T22:07:02.467Z,4.22
2018-08-14T22:09:32.606Z,4.28
2018-08-14T22:12:02.445Z,5.58
2018-08-14T22:14:32.466Z,5.33
2018-08-14T22:17:02.525Z,4.75
2018-08-14T22:19:32.502Z,4.95
2018-08-14T22:22:02.502Z,5.70
2018-08-14T22:24:32.739Z,5.08
2018-08-14T22:27:02.562Z,4.78
2018-08-14T22:29:32.575Z,5.08
2018-08-14T22:32:02.513Z,4.83
2018-08-14T22:34:32.570Z,6.78
2018-08-14T22:37:02.541Z,5.53
2018-08-14T22:39:39.177Z,6.78
2018-08-14T22:42:08.529Z,5.15
2018-08-14T22:44:37.887Z,5.43
2018-08-14T22:47:07.426Z,4.60
2018-08-14T22:49:36.759Z,3.12
2018-08-14T22:52:06.120Z,7.13
2018-08-14T22:54:35.572Z,7.43
2018-08-14T22:57:04.870Z,7.47
2018-08-14T22:59:34.243Z,6.37
2018-08-14T23:02:03.705Z,7.05
2018-08-14T23:04:33.123Z,8.90
2018-08-14T23:07:02.622Z,5.58
2018-08-14T23:09:32.621Z,6.30
2018-08-14T23:12:02.647Z,5.30
2018-08-14T23:14:32.707Z,3.93
2018-08-14T23:17:02.700Z,7.28
2018-08-14T23:19:32.699Z,7.17
2018-08-14T23:22:02.767Z,4.70
2018-08-14T23:24:32.729Z,4.75
2018-08-14T23:27:02.682Z,5.83
2018-08-14T23:29:32.795Z,6.70
2018-08-14T23:32:02.849Z,8.28
2018-08-14T23:34:32.788Z,7.55
2018-08-14T23:37:02.720Z,7.87
2018-08-14T23:39:32.793Z,8.03
2018-08-14T23:42:02.689Z,5.97
2018-08-14T23:44:32.810Z,4.85
2018-08-14T23:47:02.825Z,6.07
2018-08-14T23:49:32.728Z,6.95
2018-08-14T23:52:02.782Z,5.85
2018-08-14T23:54:32.779Z,7.90
2018-08-14T23:57:02.786Z,5.35
2018-08-14T23:59:32.841Z,3.12
